createdAt,value
2018-02-24T00:00:55.208Z,98900
2018-02-24T00:03:23.398Z,98905
2018-02-24T00:05:51.545Z,98896
2018-02-24T00:08:19.705Z,98894
2018-02-24T00:10:48.640Z,98894
2018-02-24T00:13:16.780Z,98890
2018-02-24T00:15:44.937Z,98882
2018-02-24T00:18:13.841Z,98889
2018-02-24T00:20:42.817Z,98893
2018-02-24T00:23:10.912Z,98900
2018-02-24T00:25:39.068Z,98895
2018-02-24T00:28:07.958Z,98902
2018-02-24T00:30:36.886Z,98896
2018-02-24T00:33:05.026Z,98902
2018-02-24T00:35:33.216Z,98888
2018-02-24T00:38:01.356Z,98899
2018-02-24T00:40:29.518Z,98886
2018-02-24T00:42:57.654Z,98894
2018-02-24T00:45:25.813Z,98888
2018-02-24T00:47:53.963Z,98889
2018-02-24T00:50:22.894Z,98880
2018-02-24T00:52:51.034Z,98887
2018-02-24T00:55:19.212Z,98880
2018-02-24T00:57:47.352Z,98893
2018-02-24T01:00:15.493Z,98885
2018-02-24T01:02:43.640Z,98901
2018-02-24T01:05:11.777Z,98904
2018-02-24T01:07:39.950Z,98900
2018-02-24T01:10:08.092Z,98892
2018-02-24T01:12:36.249Z,98887
2018-02-24T01:15:05.148Z,98899
2018-02-24T01:17:33.301Z,98907
2018-02-24T01:20:01.448Z,98916
2018-02-24T01:22:30.381Z,98909
2018-02-24T01:24:58.533Z,98911
2018-02-24T01:27:26.716Z,98913
2018-02-24T01:29:54.862Z,98927
2018-02-24T01:32:23.788Z,98919
2018-02-24T01:34:51.928Z,98932
2018-02-24T01:37:20.851Z,98935
2018-02-24T01:39:48.997Z,98928
2018-02-24T01:42:17.161Z,98936
2018-02-24T01:44:46.062Z,98936
2018-02-24T01:47:14.961Z,98927
2018-02-24T01:49:43.168Z,98937
2018-02-24T01:52:11.373Z,98938
2018-02-24T01:54:39.573Z,98925
2018-02-24T01:57:11.641Z,98926
2018-02-24T01:59:39.944Z,98923
2018-02-24T02:02:08.084Z,98933
2018-02-24T02:04:36.305Z,98922
2018-02-24T02:07:04.465Z,98925
2018-02-24T02:09:32.624Z,98921
2018-02-24T02:12:00.761Z,98903
2018-02-24T02:14:28.954Z,98892
2018-02-24T02:16:57.105Z,98904
2018-02-24T02:19:25.309Z,98903
2018-02-24T02:21:53.454Z,98910
2018-02-24T02:24:21.617Z,98908
2018-02-24T02:26:49.742Z,98912
2018-02-24T02:29:17.880Z,98920
2018-02-24T02:31:46.796Z,98915
2018-02-24T02:34:14.949Z,98910
2018-02-24T02:36:43.876Z,98911
2018-02-24T02:39:12.031Z,98899
2018-02-24T02:41:40.197Z,98909
2018-02-24T02:44:09.100Z,98902
2018-02-24T02:46:37.265Z,98910
2018-02-24T02:49:05.405Z,98914
2018-02-24T02:51:33.586Z,98923
2018-02-24T02:54:02.515Z,98920
2018-02-24T02:56:30.673Z,98916
2018-02-24T02:58:58.805Z,98917
2018-02-24T03:01:26.972Z,98918
2018-02-24T03:03:55.109Z,98917
2018-02-24T03:06:23.245Z,98928
2018-02-24T03:08:52.172Z,98936
2018-02-24T03:11:20.331Z,98930
2018-02-24T03:13:48.506Z,98926
2018-02-24T03:16:16.645Z,98929
2018-02-24T03:18:44.808Z,98939
2018-02-24T03:21:12.949Z,98928
2018-02-24T03:23:41.096Z,98924
2018-02-24T03:26:09.229Z,98932
2018-02-24T03:28:37.396Z,98939
2018-02-24T03:31:05.536Z,98938
2018-02-24T03:33:33.704Z,98928
2018-02-24T03:36:01.841Z,98932
2018-02-24T03:38:30.773Z,98937
2018-02-24T03:40:58.909Z,98944
2018-02-24T03:43:27.839Z,98935
2018-02-24T03:45:56.317Z,98940
2018-02-24T03:48:24.461Z,98946
2018-02-24T03:50:53.389Z,98948
2018-02-24T03:53:21.529Z,98948
2018-02-24T03:55:49.684Z,98949
2018-02-24T03:58:18.600Z,98957
2018-02-24T04:00:46.764Z,98959
2018-02-24T04:03:14.888Z,98968
2018-02-24T04:05:43.054Z,98963
2018-02-24T04:08:11.188Z,98970
2018-02-24T04:10:39.354Z,98966
2018-02-24T04:13:07.506Z,98961
2018-02-24T04:15:35.669Z,98968
2018-02-24T04:18:03.804Z,98963
2018-02-24T04:20:31.961Z,98962
2018-02-24T04:23:00.125Z,98966
2018-02-24T04:25:28.330Z,98961
2018-02-24T04:27:56.473Z,98962
2018-02-24T04:30:24.604Z,98966
2018-02-24T04:32:52.752Z,98967
2018-02-24T04:35:20.884Z,98968
2018-02-24T04:37:49.805Z,98968
2018-02-24T04:40:17.948Z,98983
2018-02-24T04:42:46.868Z,98983
2018-02-24T04:45:15.007Z,98978
2018-02-24T04:47:43.156Z,98978
2018-02-24T04:50:11.297Z,98971
2018-02-24T04:52:39.454Z,98982
2018-02-24T04:55:07.588Z,98981
2018-02-24T04:57:36.537Z,98986
2018-02-24T05:00:04.664Z,98992
2018-02-24T05:02:33.581Z,98985
2018-02-24T05:05:01.716Z,98992
2018-02-24T05:07:30.667Z,98986
2018-02-24T05:09:58.797Z,98994
2018-02-24T05:12:27.701Z,98999
2018-02-24T05:14:55.856Z,98994
2018-02-24T05:17:24.779Z,98991
2018-02-24T05:19:52.944Z,98997
2018-02-24T05:22:21.102Z,99000
2018-02-24T05:24:49.282Z,98987
2018-02-24T05:27:17.424Z,98996
2018-02-24T05:29:46.376Z,99002
2018-02-24T05:32:14.597Z,99006
2018-02-24T05:34:43.577Z,99014
2018-02-24T05:37:11.766Z,99013
2018-02-24T05:39:39.966Z,99014
2018-02-24T05:42:08.101Z,99019
2018-02-24T05:44:36.256Z,99030
2018-02-24T05:47:04.396Z,99015
2018-02-24T05:49:32.556Z,99029
2018-02-24T05:52:00.688Z,99018
2018-02-24T05:54:28.844Z,99025
2018-02-24T05:56:57.002Z,99011
2018-02-24T05:59:25.149Z,99030
2018-02-24T06:01:53.308Z,99028
2018-02-24T06:04:21.468Z,99023
2018-02-24T06:06:50.399Z,99031
2018-02-24T06:09:18.542Z,99036
2018-02-24T06:11:47.468Z,99049
2018-02-24T06:14:15.609Z,99042
2018-02-24T06:16:43.769Z,99049
2018-02-24T06:19:12.677Z,99053
2018-02-24T06:21:40.844Z,99040
2018-02-24T06:24:08.978Z,99054
2018-02-24T06:26:37.132Z,99061
2018-02-24T06:29:05.265Z,99063
2018-02-24T06:31:33.429Z,99064
2018-02-24T06:34:02.337Z,99069
2018-02-24T06:36:30.501Z,99074
2018-02-24T06:38:58.633Z,99066
2018-02-24T06:41:26.804Z,99071
2018-02-24T06:43:54.949Z,99076
2018-02-24T06:46:23.117Z,99079
2018-02-24T06:48:51.312Z,99070
2018-02-24T06:51:19.480Z,99096
2018-02-24T06:53:47.623Z,99088
2018-02-24T06:56:15.777Z,99083
2018-02-24T06:58:44.674Z,99090
2018-02-24T07:01:13.606Z,99084
2018-02-24T07:03:41.742Z,99085
2018-02-24T07:06:10.674Z,99085
2018-02-24T07:08:38.818Z,99087
2018-02-24T07:11:06.973Z,99084
2018-02-24T07:13:35.885Z,99088
2018-02-24T07:16:04.045Z,99079
2018-02-24T07:18:32.204Z,99093
2018-02-24T07:21:01.129Z,99100
2018-02-24T07:23:29.269Z,99095
2018-02-24T07:25:58.317Z,99106
2018-02-24T07:28:26.541Z,99100
2018-02-24T07:30:55.564Z,99105
2018-02-24T07:33:23.744Z,99110
2018-02-24T07:35:51.944Z,99102
2018-02-24T07:38:20.152Z,99106
2018-02-24T07:40:49.126Z,99098
2018-02-24T07:43:17.325Z,99101
2018-02-24T07:45:46.282Z,99095
2018-02-24T07:48:14.478Z,99087
2018-02-24T07:50:43.467Z,99100
2018-02-24T07:53:11.649Z,99102
2018-02-24T07:55:40.548Z,99100
2018-02-24T07:58:09.470Z,99099
2018-02-24T08:00:37.608Z,99107
2018-02-24T08:03:06.536Z,99100
2018-02-24T08:05:34.677Z,99109
2018-02-24T08:08:03.601Z,99103
2018-02-24T08:10:31.761Z,99103
2018-02-24T08:12:59.912Z,99097
2018-02-24T08:15:28.841Z,99107
2018-02-24T08:17:57.008Z,99106
2018-02-24T08:20:25.144Z,99105
2018-02-24T08:22:54.069Z,99108
2018-02-24T08:25:22.222Z,99102
2018-02-24T08:27:50.372Z,99104
2018-02-24T08:30:18.579Z,99102
2018-02-24T08:32:46.729Z,99105
2018-02-24T08:35:14.897Z,99102
2018-02-24T08:37:43.044Z,99100
2018-02-24T08:40:11.202Z,99089
2018-02-24T08:42:39.345Z,99100
2018-02-24T08:45:07.517Z,99094
2018-02-24T08:47:35.658Z,99091
2018-02-24T08:50:03.825Z,99094
2018-02-24T08:52:31.961Z,99102
2018-02-24T08:55:00.118Z,99099
2018-02-24T08:57:28.257Z,99110
2018-02-24T08:59:57.186Z,99107
2018-02-24T09:02:25.321Z,99110
2018-02-24T09:04:54.250Z,99103
2018-02-24T09:07:22.406Z,99095
2018-02-24T09:09:50.556Z,99088
2018-02-24T09:12:18.693Z,99094
2018-02-24T09:14:46.865Z,99080
2018-02-24T09:17:15.016Z,99086
2018-02-24T09:19:43.163Z,99085
2018-02-24T09:22:12.079Z,99080
2018-02-24T09:24:40.216Z,99075
2018-02-24T09:27:09.187Z,99076
2018-02-24T09:29:44.857Z,99077
2018-02-24T09:32:13.011Z,99089
2018-02-24T09:34:41.145Z,99087
2018-02-24T09:37:09.283Z,99081
2018-02-24T09:39:38.173Z,99088
2018-02-24T09:42:07.091Z,99089
2018-02-24T09:44:35.978Z,99086
2018-02-24T09:47:04.133Z,99083
2018-02-24T09:49:32.289Z,99086
2018-02-24T09:52:01.188Z,99078
2018-02-24T09:54:30.106Z,99099
2018-02-24T09:56:58.309Z,99084
2018-02-24T09:59:26.458Z,99079
2018-02-24T10:01:54.598Z,99088
2018-02-24T10:04:23.509Z,99090
2018-02-24T10:06:51.645Z,99089
2018-02-24T10:09:19.797Z,99095
2018-02-24T10:11:47.924Z,99101
2018-02-24T10:14:16.086Z,99100
2018-02-24T10:16:44.261Z,99086
2018-02-24T10:19:12.437Z,99086
2018-02-24T10:21:40.573Z,99098
2018-02-24T10:24:08.765Z,99085
2018-02-24T10:26:37.682Z,99098
2018-02-24T10:29:05.833Z,99091
2018-02-24T10:31:34.754Z,99106
2018-02-24T10:34:03.034Z,99096
2018-02-24T10:36:31.925Z,99095
2018-02-24T10:39:00.140Z,99096
2018-02-24T10:41:28.301Z,99094
2018-02-24T10:43:56.481Z,99092
2018-02-24T10:46:24.642Z,99095
2018-02-24T10:49:10.617Z,99088
2018-02-24T10:51:38.803Z,99094
2018-02-24T10:54:06.943Z,99085
2018-02-24T10:56:35.105Z,99093
2018-02-24T10:59:04.005Z,99089
2018-02-24T11:01:32.153Z,99097
2018-02-24T11:04:01.057Z,99079
2018-02-24T11:06:29.964Z,99066
2018-02-24T11:08:58.113Z,99079
2018-02-24T11:11:26.323Z,99051
2018-02-24T11:13:55.181Z,99061
2018-02-24T11:16:23.433Z,99054
2018-02-24T11:18:52.343Z,99048
2018-02-24T11:21:21.365Z,99057
2018-02-24T11:23:49.560Z,99051
2018-02-24T11:26:17.818Z,99044
2018-02-24T11:28:45.972Z,99042
2018-02-24T11:31:14.157Z,99039
2018-02-24T11:33:42.356Z,99036
2018-02-24T11:36:10.561Z,99042
2018-02-24T11:38:38.733Z,99034
2018-02-24T11:41:06.933Z,99032
2018-02-24T11:43:35.890Z,99025
2018-02-24T11:46:04.093Z,99030
2018-02-24T11:48:33.035Z,99031
2018-02-24T11:51:01.251Z,99023
2018-02-24T11:53:30.170Z,99019
2018-02-24T11:56:01.534Z,99029
2018-02-24T11:58:29.665Z,99027
2018-02-24T12:00:58.581Z,99018
2018-02-24T12:03:26.751Z,99017
2018-02-24T12:05:54.932Z,99016
2018-02-24T12:08:23.161Z,99020
2018-02-24T12:10:51.331Z,99014
2018-02-24T12:13:19.533Z,99015
2018-02-24T12:15:49.390Z,99015
2018-02-24T12:18:17.609Z,99002
2018-02-24T12:20:46.533Z,99000
2018-02-24T12:23:14.770Z,98998
2018-02-24T12:25:42.945Z,99000
2018-02-24T12:28:11.105Z,98996
2018-02-24T12:30:39.244Z,98995
2018-02-24T12:33:07.401Z,99001
2018-02-24T12:35:35.554Z,99007
2018-02-24T12:38:04.477Z,98995
2018-02-24T12:40:32.613Z,98993
2018-02-24T12:43:01.585Z,99002
2018-02-24T12:45:29.721Z,98994
2018-02-24T12:47:57.965Z,98986
2018-02-24T12:50:26.881Z,98986
2018-02-24T12:52:55.038Z,98992
2018-02-24T12:55:23.176Z,98982
2018-02-24T12:57:51.408Z,98987
2018-02-24T13:00:19.540Z,98989
2018-02-24T13:02:48.464Z,98990
2018-02-24T13:05:17.574Z,98982
2018-02-24T13:07:45.741Z,98989
2018-02-24T13:10:13.909Z,98988
2018-02-24T13:12:42.069Z,98992
2018-02-24T13:15:10.200Z,98979
2018-02-24T13:17:38.351Z,98986
2018-02-24T13:20:06.485Z,98999
2018-02-24T13:22:34.645Z,98987
2018-02-24T13:25:02.781Z,98986
2018-02-24T13:27:31.013Z,98990
2018-02-24T13:29:59.228Z,98977
2018-02-24T13:32:27.410Z,98973
2018-02-24T13:34:55.555Z,98972
2018-02-24T13:37:23.706Z,98977
2018-02-24T13:39:51.837Z,98987
2018-02-24T13:42:19.988Z,99014
2018-02-24T13:44:48.121Z,98987
2018-02-24T13:47:16.305Z,98980
2018-02-24T13:49:44.450Z,98990
2018-02-24T13:52:13.378Z,98979
2018-02-24T13:54:41.505Z,98995
2018-02-24T13:57:09.678Z,99013
2018-02-24T13:59:37.808Z,99035
2018-02-24T14:02:06.006Z,99029
2018-02-24T14:04:34.210Z,99039
2018-02-24T14:07:02.426Z,99004
2018-02-24T14:09:30.557Z,99001
2018-02-24T14:11:58.818Z,98992
2018-02-24T14:14:27.781Z,98987
2018-02-24T14:16:56.030Z,98997
2018-02-24T14:19:24.160Z,98998
2018-02-24T14:21:53.085Z,98999
2018-02-24T14:24:21.222Z,99036
2018-02-24T14:26:49.380Z,98992
2018-02-24T14:29:17.505Z,99033
2018-02-24T14:31:45.648Z,99004
2018-02-24T14:34:14.545Z,99000
2018-02-24T14:36:43.471Z,99001
2018-02-24T14:39:11.616Z,99017
2018-02-24T14:41:39.745Z,99009
2018-02-24T14:44:07.893Z,99000
2018-02-24T14:46:36.040Z,99032
2018-02-24T14:49:04.230Z,99028
2018-02-24T14:51:32.364Z,99012
2018-02-24T14:54:01.285Z,99039
2018-02-24T14:56:29.413Z,99042
2018-02-24T14:58:57.558Z,99053
2018-02-24T15:01:25.677Z,99049
2018-02-24T15:03:54.589Z,99059
2018-02-24T15:06:22.726Z,99052
2018-02-24T15:08:50.872Z,99051
2018-02-24T15:11:18.992Z,99057
2018-02-24T15:13:47.133Z,99062
2018-02-24T15:16:15.269Z,99055
2018-02-24T15:18:43.412Z,99031
2018-02-24T15:21:11.528Z,99043
2018-02-24T15:23:39.670Z,99067
2018-02-24T15:26:07.805Z,99063
2018-02-24T15:28:35.956Z,99059
2018-02-24T15:31:04.106Z,99056
2018-02-24T15:33:32.246Z,99029
2018-02-24T15:36:01.141Z,99040
2018-02-24T15:38:29.293Z,99035
2018-02-24T15:40:58.198Z,99058
2018-02-24T15:43:26.350Z,99059
2018-02-24T15:45:54.476Z,99062
2018-02-24T15:48:22.618Z,99073
2018-02-24T15:50:51.505Z,99054
2018-02-24T15:53:20.429Z,99071
2018-02-24T15:55:48.544Z,99067
2018-02-24T15:58:16.692Z,99070
2018-02-24T16:00:44.817Z,99067
2018-02-24T16:03:12.965Z,99094
2018-02-24T16:05:41.112Z,99104
2018-02-24T16:08:09.249Z,99095
2018-02-24T16:10:37.392Z,99103
2018-02-24T16:13:06.309Z,99093
2018-02-24T16:15:34.437Z,99089
2018-02-24T16:18:02.580Z,99100
2018-02-24T16:20:30.705Z,99108
2018-02-24T16:22:59.617Z,99110
2018-02-24T16:25:27.776Z,99111
2018-02-24T16:27:56.666Z,99109
2018-02-24T16:30:25.565Z,99119
2018-02-24T16:32:54.478Z,99114
2018-02-24T16:35:22.613Z,99113
2018-02-24T16:37:51.501Z,99117
2018-02-24T16:40:20.430Z,99115
2018-02-24T16:42:48.548Z,99132
2018-02-24T16:45:16.700Z,99118
2018-02-24T16:47:44.830Z,99119
2018-02-24T16:50:12.974Z,99136
2018-02-24T16:52:41.101Z,99139
2018-02-24T16:55:09.254Z,99139
2018-02-24T16:57:37.395Z,99145
2018-02-24T17:00:05.541Z,99137
2018-02-24T17:02:33.675Z,99139
2018-02-24T17:05:01.833Z,99152
2018-02-24T17:07:30.737Z,99146
2018-02-24T17:09:58.972Z,99150
2018-02-24T17:12:27.135Z,99151
2018-02-24T17:14:55.272Z,99157
2018-02-24T17:17:23.420Z,99165
2018-02-24T17:19:51.544Z,99165
2018-02-24T17:22:19.693Z,99163
2018-02-24T17:24:47.830Z,99174
2018-02-24T17:27:16.750Z,99170
2018-02-24T17:29:44.881Z,99171
2018-02-24T17:32:13.033Z,99179
2018-02-24T17:34:41.170Z,99190
2018-02-24T17:37:09.331Z,99196
2018-02-24T17:39:37.468Z,99192
2018-02-24T17:42:05.635Z,99186
2018-02-24T17:44:33.830Z,99197
2018-02-24T17:47:02.749Z,99185
2018-02-24T17:49:30.896Z,99198
2018-02-24T17:51:59.791Z,99200
2018-02-24T17:54:28.708Z,99199
2018-02-24T17:56:56.865Z,99198
2018-02-24T17:59:25.018Z,99199
2018-02-24T18:01:53.925Z,99205
2018-02-24T18:04:22.094Z,99209
2018-02-24T18:06:51.009Z,99206
2018-02-24T18:09:19.164Z,99206
2018-02-24T18:11:47.297Z,99210
2018-02-24T18:14:15.429Z,99208
2018-02-24T18:16:43.589Z,99213
2018-02-24T18:19:11.729Z,99212
2018-02-24T18:21:40.648Z,99215
2018-02-24T18:24:08.777Z,99209
2018-02-24T18:26:36.930Z,99214
2018-02-24T18:29:05.072Z,99209
2018-02-24T18:31:33.229Z,99215
2018-02-24T18:34:02.121Z,99215
2018-02-24T18:36:31.037Z,99231
2018-02-24T18:38:59.187Z,99238
2018-02-24T18:41:28.109Z,99237
2018-02-24T18:43:57.100Z,99239
2018-02-24T18:46:25.384Z,99230
2018-02-24T18:48:53.518Z,99225
2018-02-24T18:51:21.669Z,99234
2018-02-24T18:53:49.826Z,99244
2018-02-24T18:56:17.962Z,99239
2018-02-24T18:58:46.119Z,99238
2018-02-24T19:01:14.253Z,99245
2018-02-24T19:03:42.409Z,99251
2018-02-24T19:06:10.541Z,99263
2018-02-24T19:08:38.697Z,99252
2018-02-24T19:11:07.593Z,99249
2018-02-24T19:13:35.749Z,99254
2018-02-24T19:16:04.649Z,99265
2018-02-24T19:18:33.561Z,99261
2018-02-24T19:21:01.726Z,99264
2018-02-24T19:23:29.885Z,99265
2018-02-24T19:25:58.780Z,99267
2018-02-24T19:28:26.940Z,99284
2018-02-24T19:30:55.851Z,99278
2018-02-24T19:33:23.989Z,99271
2018-02-24T19:35:54.079Z,99287
2018-02-24T19:38:22.205Z,99291
2018-02-24T19:40:51.149Z,99293
2018-02-24T19:43:19.301Z,99300
2018-02-24T19:45:47.514Z,99290
2018-02-24T19:48:15.702Z,99289
2018-02-24T19:50:44.657Z,99296
2018-02-24T19:53:12.814Z,99292
2018-02-24T19:55:41.053Z,99294
2018-02-24T19:58:09.993Z,99308
2018-02-24T20:00:38.193Z,99296
2018-02-24T20:03:06.421Z,99310
2018-02-24T20:05:34.693Z,99306
2018-02-24T20:08:02.854Z,99307
2018-02-24T20:10:31.046Z,99309
2018-02-24T20:12:59.207Z,99296
2018-02-24T20:15:27.454Z,99317
2018-02-24T20:17:56.377Z,99311
2018-02-24T20:20:24.622Z,99321
2018-02-24T20:22:53.556Z,99319
2018-02-24T20:25:21.718Z,99329
2018-02-24T20:27:49.910Z,99339
2018-02-24T20:30:18.098Z,99326
2018-02-24T20:32:46.278Z,99335
2018-02-24T20:35:17.985Z,99337
2018-02-24T20:37:46.226Z,99345
2018-02-24T20:40:14.385Z,99346
2018-02-24T20:42:42.605Z,99342
2018-02-24T20:45:10.819Z,99346
2018-02-24T20:47:39.005Z,99352
2018-02-24T20:50:07.166Z,99349
2018-02-24T20:52:35.358Z,99345
2018-02-24T20:55:04.447Z,99343
2018-02-24T20:57:32.674Z,99349
2018-02-24T21:00:00.852Z,99365
2018-02-24T21:02:29.117Z,99350
2018-02-24T21:04:58.043Z,99359
2018-02-24T21:07:26.317Z,99354
2018-02-24T21:09:54.508Z,99349
2018-02-24T21:12:22.653Z,99367
2018-02-24T21:14:50.831Z,99352
2018-02-24T21:17:18.997Z,99361
2018-02-24T21:19:47.202Z,99370
2018-02-24T21:22:15.373Z,99372
2018-02-24T21:24:43.594Z,99379
2018-02-24T21:27:12.500Z,99382
2018-02-24T21:29:40.649Z,99383
2018-02-24T21:32:09.556Z,99387
2018-02-24T21:34:37.705Z,99386
2018-02-24T21:37:05.845Z,99387
2018-02-24T21:39:34.005Z,99389
2018-02-24T21:42:02.153Z,99400
2018-02-24T21:44:30.308Z,99388
2018-02-24T21:46:58.436Z,99394
2018-02-24T21:49:26.597Z,99403
2018-02-24T21:51:54.725Z,99400
2018-02-24T21:54:23.621Z,99398
2018-02-24T21:56:51.791Z,99412
2018-02-24T21:59:19.925Z,99394
2018-02-24T22:01:48.082Z,99387
2018-02-24T22:04:16.213Z,99380
2018-02-24T22:06:45.151Z,99383
2018-02-24T22:09:13.289Z,99388
2018-02-24T22:11:42.201Z,99387
2018-02-24T22:14:10.337Z,99384
2018-02-24T22:16:38.492Z,99384
2018-02-24T22:19:06.637Z,99394
2018-02-24T22:21:34.781Z,99394
2018-02-24T22:24:02.915Z,99385
2018-02-24T22:26:31.061Z,99398
2018-02-24T22:28:59.193Z,99389
2018-02-24T22:31:27.349Z,99392
2018-02-24T22:33:56.255Z,99407
2018-02-24T22:36:24.434Z,99393
2018-02-24T22:38:52.570Z,99393
2018-02-24T22:41:20.745Z,99392
2018-02-24T22:43:48.887Z,99397
2018-02-24T22:46:17.032Z,99393
2018-02-24T22:48:50.820Z,99399
2018-02-24T22:51:19.721Z,99415
2018-02-24T22:53:47.868Z,99406
2018-02-24T22:56:16.774Z,99421
2018-02-24T22:58:44.953Z,99407
2018-02-24T23:01:13.094Z,99409
2018-02-24T23:03:41.245Z,99412
2018-02-24T23:06:10.318Z,99414
2018-02-24T23:08:38.465Z,99421
2018-02-24T23:11:06.606Z,99424
2018-02-24T23:13:34.776Z,99422
2018-02-24T23:16:02.913Z,99428
2018-02-24T23:18:31.814Z,99438
2018-02-24T23:20:59.969Z,99437
2018-02-24T23:23:28.113Z,99432
2018-02-24T23:25:57.046Z,99427
2018-02-24T23:28:26.052Z,99435
2018-02-24T23:30:54.212Z,99434
2018-02-24T23:33:22.345Z,99424
2018-02-24T23:35:51.273Z,99432
2018-02-24T23:38:19.421Z,99439
2018-02-24T23:40:47.578Z,99429
2018-02-24T23:43:16.477Z,99431
2018-02-24T23:45:48.617Z,99440
2018-02-24T23:48:16.754Z,99424
2018-02-24T23:50:44.942Z,99432
2018-02-24T23:53:13.076Z,99428
2018-02-24T23:55:41.230Z,99427
2018-02-24T23:58:10.129Z,99427
